Time;durP1;ratioP1;P1;durP2;ratioP2;P2;SDS_P1;SDS_P2;PMS_P1;PMS_P2;Temp;Humidity;BMP_temperature;BMP_pressure;BME280_temperature;BME280_humidity;BME280_pressure;Samples;Min_cycle;Max_cycle;Signal;HPM_P1;HPM_P2
2024/03/29 00:01:26;;;;;;;4.78;1.00;;;;;;;12.76;46.28;99106.59;4957046;28;115621;-81
2024/03/29 00:03:53;;;;;;;5.25;1.25;;;;;;;12.75;46.14;99104.91;4972836;28;115387;-81
2024/03/29 00:06:19;;;;;;;4.90;1.10;;;;;;;12.74;46.07;99108.53;4950350;28;125937;-82
2024/03/29 00:08:46;;;;;;;4.13;1.20;;;;;;;12.71;46.19;99103.47;4946113;28;125683;-82
2024/03/29 00:11:12;;;;;;;3.75;0.80;;;;;;;12.69;46.21;99110.72;4974017;28;115002;-81
2024/03/29 00:13:38;;;;;;;3.13;1.05;;;;;;;12.64;46.25;99103.97;4954020;28;113057;-82
2024/03/29 00:16:04;;;;;;;3.65;0.90;;;;;;;12.61;46.39;99098.06;4948940;28;125877;-81
2024/03/29 00:18:31;;;;;;;2.67;1.20;;;;;;;12.56;46.39;99095.75;4984083;28;124805;-80
2024/03/29 00:20:57;;;;;;;5.00;1.05;;;;;;;12.52;46.52;99094.34;4988662;28;114233;-81
2024/03/29 00:23:23;;;;;;;4.40;1.20;;;;;;;12.49;46.47;99088.44;4957915;28;114845;-81
2024/03/29 00:25:49;;;;;;;4.60;0.90;;;;;;;12.45;46.60;99088.69;4961789;28;124387;-81
2024/03/29 00:28:15;;;;;;;5.25;1.10;;;;;;;12.42;46.56;99088.94;4968490;28;124477;-82
2024/03/29 00:30:41;;;;;;;2.53;0.90;;;;;;;12.40;46.68;99100.66;4978442;28;114146;-81
2024/03/29 00:33:08;;;;;;;3.75;0.93;;;;;;;12.39;46.73;99104.25;4964697;28;114525;-82
2024/03/29 00:35:34;;;;;;;4.32;1.13;;;;;;;12.37;46.71;99111.50;4982568;28;123938;-81
2024/03/29 00:38:00;;;;;;;2.22;0.95;;;;;;;12.33;46.78;99110.91;4981541;28;123778;-80
2024/03/29 00:40:26;;;;;;;2.55;1.00;;;;;;;12.32;46.82;99108.38;4962489;28;114000;-81
2024/03/29 00:42:52;;;;;;;2.83;1.00;;;;;;;12.30;47.03;99120.94;4969056;28;113703;-81
2024/03/29 00:45:20;;;;;;;5.68;1.92;;;;;;;12.29;46.90;99113.94;4968548;28;123030;-81
2024/03/29 00:47:46;;;;;;;4.18;0.90;;;;;;;12.25;47.03;99114.19;4974334;28;123077;-83
2024/03/29 00:50:12;;;;;;;4.15;1.38;;;;;;;12.22;47.02;99109.13;4966556;28;114238;-80
2024/03/29 00:52:38;;;;;;;4.35;1.23;;;;;;;12.21;47.14;99112.75;4950146;28;111861;-81
2024/03/29 00:55:05;;;;;;;4.45;1.15;;;;;;;12.18;47.12;99112.97;4961657;28;124973;-82
2024/03/29 00:57:31;;;;;;;2.25;0.90;;;;;;;12.15;47.18;99118.56;4977990;28;123739;-81
2024/03/29 00:59:57;;;;;;;5.18;1.27;;;;;;;12.13;47.27;99120.47;4952838;28;116197;-80
2024/03/29 01:02:23;;;;;;;3.50;1.10;;;;;;;12.10;47.37;99126.03;4975040;28;114102;-81
2024/03/29 01:04:50;;;;;;;3.92;1.00;;;;;;;12.08;47.30;99122.66;4950083;28;123873;-80
2024/03/29 01:07:17;;;;;;;5.07;1.20;;;;;;;12.06;47.30;99114.81;4950980;28;122160;-80
2024/03/29 01:09:44;;;;;;;5.47;1.27;;;;;;;12.06;47.39;99119.28;4977323;28;113559;-80
2024/03/29 01:12:10;;;;;;;4.65;1.13;;;;;;;12.04;47.48;99123.88;4965098;28;114286;-81
2024/03/29 01:14:37;;;;;;;4.60;0.98;;;;;;;12.02;47.42;99123.13;4954382;28;123206;-80
2024/03/29 01:17:04;;;;;;;3.53;0.90;;;;;;;12.01;47.51;99116.13;4963559;28;123695;-80
2024/03/29 01:19:30;;;;;;;3.63;0.98;;;;;;;12.00;47.56;99125.06;4942805;28;115124;-81
2024/03/29 01:21:56;;;;;;;3.20;1.05;;;;;;;11.98;47.69;99129.63;4969215;28;113817;-80
2024/03/29 01:24:23;;;;;;;4.75;1.15;;;;;;;11.98;47.72;99116.34;4962030;28;124859;-80
2024/03/29 01:26:49;;;;;;;3.42;0.80;;;;;;;11.97;47.62;99112.88;4984765;28;124241;-80
2024/03/29 01:29:16;;;;;;;4.05;0.82;;;;;;;11.96;47.60;99105.03;4973905;28;113940;-80
2024/03/29 01:31:42;;;;;;;2.95;0.90;;;;;;;11.95;47.67;99106.00;4982602;28;114046;-81
2024/03/29 01:34:08;;;;;;;2.55;0.80;;;;;;;11.96;47.82;99102.38;4954326;28;123420;-81
2024/03/29 01:36:35;;;;;;;2.80;0.82;;;;;;;11.96;47.81;99107.69;4985711;28;125053;-80
2024/03/29 01:39:01;;;;;;;2.58;0.95;;;;;;;11.96;47.84;99097.06;4967133;28;113346;-81
2024/03/29 01:41:27;;;;;;;1.83;0.70;;;;;;;11.97;47.71;99088.16;4955277;28;114539;-80
2024/03/29 01:43:54;;;;;;;2.45;0.95;;;;;;;11.98;47.73;99089.81;4968496;28;126048;-81
2024/03/29 01:46:23;;;;;;;3.88;0.82;;;;;;;11.97;47.62;99077.53;4968274;28;123336;-81
2024/03/29 01:48:56;;;;;;;2.25;0.85;;;;;;;11.97;47.77;99077.53;4978867;28;115579;-81
2024/03/29 01:55:42;;;;;;;1.83;0.80;;;;;;;11.95;47.80;99031.72;5005110;28;124872;-80
2024/03/29 01:58:59;;;;;;;4.65;0.80;;;;;;;11.93;47.93;99038.97;5004831;28;124661;-81
2024/03/29 02:01:27;;;;;;;3.80;0.73;;;;;;;11.92;47.98;99034.63;4955715;28;115001;-79
2024/03/29 02:03:55;;;;;;;2.95;1.20;;;;;;;11.94;48.15;99025.59;4949593;28;115392;-79
2024/03/29 02:06:22;;;;;;;3.63;1.08;;;;;;;11.96;48.20;99033.41;4961736;28;123750;-79
2024/03/29 02:08:57;;;;;;;3.42;1.05;;;;;;;11.98;48.30;99036.75;4964414;28;123305;-79
2024/03/29 02:11:23;;;;;;;3.75;0.80;;;;;;;12.01;48.29;99041.84;4962755;28;115101;-78
2024/03/29 02:13:50;;;;;;;3.67;1.15;;;;;;;12.04;48.11;99062.84;4959121;28;114887;-79
2024/03/29 02:16:16;;;;;;;4.32;0.90;;;;;;;12.06;48.29;99058.25;4958955;28;125453;-79
2024/03/29 02:18:43;;;;;;;1.90;0.98;;;;;;;12.07;48.19;99063.44;4958753;28;124287;-79
2024/03/29 02:21:09;;;;;;;4.30;1.25;;;;;;;12.10;48.27;99072.94;4964738;28;114410;-79
2024/03/29 02:23:43;;;;;;;2.25;0.95;;;;;;;12.13;48.24;99078.03;4973384;28;112397;-78
2024/03/29 02:26:10;;;;;;;3.58;1.10;;;;;;;12.16;48.20;99083.06;4969994;28;125054;-79
2024/03/29 02:28:36;;;;;;;1.58;0.80;;;;;;;12.19;48.61;99082.81;4979118;28;123550;-79
2024/03/29 02:31:02;;;;;;;3.97;1.10;;;;;;;12.24;48.12;99095.72;4980087;28;114809;-79
2024/03/29 02:33:29;;;;;;;2.50;1.13;;;;;;;12.27;48.25;99084.88;4949401;28;114381;-78
2024/03/29 02:35:55;;;;;;;2.38;1.02;;;;;;;12.32;48.19;99087.13;4942628;28;125787;-79
2024/03/29 02:38:21;;;;;;;3.65;1.00;;;;;;;12.36;48.09;99088.59;4956086;28;124926;-79
2024/03/29 02:40:47;;;;;;;3.20;0.90;;;;;;;12.40;48.32;99084.72;4986752;28;115967;-79
2024/03/29 02:43:13;;;;;;;4.40;1.23;;;;;;;12.43;48.33;99068.53;4963953;28;114589;-79
2024/03/29 02:45:39;;;;;;;3.38;0.98;;;;;;;12.46;47.93;99085.06;4947210;28;124495;-79
2024/03/29 02:48:09;;;;;;;4.70;1.75;;;;;;;12.49;48.20;99094.59;4959550;28;123957;-79
2024/03/29 02:50:36;;;;;;;2.60;1.10;;;;;;;12.52;48.11;99088.19;4964450;28;115447;-81
2024/03/29 02:53:02;;;;;;;2.88;0.90;;;;;;;12.54;48.31;99089.75;4983091;28;113581;-81
2024/03/29 02:55:28;;;;;;;2.47;1.00;;;;;;;12.57;48.15;99107.25;4978050;28;124266;-81
2024/03/29 02:57:54;;;;;;;3.75;1.02;;;;;;;12.58;48.13;99104.47;4979549;28;123712;-81
2024/03/29 03:00:20;;;;;;;2.80;1.08;;;;;;;12.60;48.20;99091.91;4966258;28;114104;-81
2024/03/29 03:02:47;;;;;;;3.20;0.70;;;;;;;12.62;48.24;99105.91;4983978;28;113087;-84
2024/03/29 03:05:13;;;;;;;2.97;0.70;;;;;;;12.65;48.30;99105.66;4992053;28;123678;-84
2024/03/29 03:13:09;;;;;;;3.03;1.10;;;;;;;12.73;48.33;99120.13;4972302;28;112561;-81
2024/03/29 03:15:35;;;;;;;2.25;0.90;;;;;;;12.76;48.43;99118.06;4969277;28;124282;-81
2024/03/29 03:18:01;;;;;;;5.82;0.93;;;;;;;12.78;48.44;99131.22;4992668;28;124790;-81
2024/03/29 03:20:30;;;;;;;1.98;1.00;;;;;;;12.81;48.57;99136.28;4965004;28;114557;-81
2024/03/29 03:22:57;;;;;;;4.40;0.95;;;;;;;12.83;48.65;99129.03;4966359;28;113981;-82
2024/03/29 03:25:25;;;;;;;2.10;0.90;;;;;;;12.84;48.61;99125.41;4953745;28;125104;-82
2024/03/29 03:27:51;;;;;;;1.52;0.90;;;;;;;12.85;48.64;99127.09;4972814;28;123905;-80
2024/03/29 03:30:17;;;;;;;2.45;0.95;;;;;;;12.85;48.80;99129.75;4982901;28;115397;-81
2024/03/29 03:32:44;;;;;;;3.75;0.90;;;;;;;12.85;48.78;99127.09;4957196;28;115850;-82
2024/03/29 03:35:10;;;;;;;2.40;0.90;;;;;;;12.85;48.87;99135.06;4975445;28;123266;-82
2024/03/29 03:37:36;;;;;;;2.65;0.90;;;;;;;12.86;49.05;99123.44;4974829;28;124896;-80
2024/03/29 03:40:04;;;;;;;3.95;1.00;;;;;;;12.86;49.15;99128.75;4968981;28;113790;-84
2024/03/29 03:42:30;;;;;;;2.53;0.80;;;;;;;12.86;49.14;99126.09;4968024;28;113231;-82
2024/03/29 03:44:56;;;;;;;2.50;0.98;;;;;;;12.87;49.35;99111.88;4947406;28;123345;-81
2024/03/29 03:47:22;;;;;;;1.38;0.82;;;;;;;12.87;49.24;99125.16;4959084;28;124886;-81
2024/03/29 03:49:49;;;;;;;3.08;0.77;;;;;;;12.88;49.35;99137.44;4975162;28;114044;-80
2024/03/29 03:52:15;;;;;;;4.10;0.85;;;;;;;12.90;49.35;99132.03;4976921;28;114456;-81
2024/03/29 03:54:41;;;;;;;2.58;1.00;;;;;;;12.88;49.26;99132.13;4972834;28;123926;-82
2024/03/29 03:57:07;;;;;;;2.35;0.90;;;;;;;12.88;49.28;99132.13;4950935;28;124922;-82
2024/03/29 03:59:33;;;;;;;1.83;0.88;;;;;;;12.87;49.28;99125.16;4952095;28;113144;-81
2024/03/29 04:02:00;;;;;;;2.30;1.00;;;;;;;12.88;49.41;99131.31;4971925;28;113914;-84
2024/03/29 04:04:26;;;;;;;3.95;1.05;;;;;;;12.85;49.42;99149.19;4971103;28;123092;-82
2024/03/29 04:06:52;;;;;;;1.80;0.90;;;;;;;12.85;49.57;99137.72;4976248;28;123131;-82
2024/03/29 04:09:18;;;;;;;3.30;0.80;;;;;;;12.83;49.48;99144.97;4982669;28;113623;-82
2024/03/29 04:11:44;;;;;;;4.50;1.00;;;;;;;12.82;49.70;99148.59;4969627;28;113509;-82
2024/03/29 04:14:10;;;;;;;3.22;0.90;;;;;;;12.81;49.65;99141.59;4962483;28;123184;-81
2024/03/29 04:16:37;;;;;;;1.95;0.85;;;;;;;12.79;49.80;99132.88;4988053;28;122147;-82
2024/03/29 04:19:03;;;;;;;1.98;0.80;;;;;;;12.77;49.71;99140.16;4962187;28;117066;-82
2024/03/29 04:21:29;;;;;;;3.13;0.90;;;;;;;12.75;49.71;99152.72;4961318;28;116364;-82
2024/03/29 04:23:55;;;;;;;2.00;0.80;;;;;;;12.72;49.65;99137.03;4965687;28;124854;-82
2024/03/29 04:26:22;;;;;;;3.72;1.00;;;;;;;12.70;49.83;99138.97;4976455;28;123033;-82
2024/03/29 04:28:48;;;;;;;1.90;1.00;;;;;;;12.65;50.08;99142.81;4966752;28;114228;-82
2024/03/29 04:31:14;;;;;;;3.40;0.80;;;;;;;12.62;50.06;99153.72;4974915;28;114280;-82
2024/03/29 04:33:41;;;;;;;3.10;1.23;;;;;;;12.59;50.20;99156.63;4972588;28;124082;-82
2024/03/29 04:36:07;;;;;;;2.42;0.95;;;;;;;12.54;50.38;99140.19;4987812;28;122941;-82
2024/03/29 04:38:33;;;;;;;2.25;1.00;;;;;;;12.51;50.48;99135.16;4971451;28;115527;-82
2024/03/29 04:41:00;;;;;;;3.50;1.23;;;;;;;12.48;50.46;99130.06;4975396;28;114784;-82
2024/03/29 04:43:28;;;;;;;2.10;1.05;;;;;;;12.45;50.90;99135.63;4960552;28;123232;-83
2024/03/29 04:46:11;;;;;;;3.40;0.85;;;;;;;12.41;51.16;99139.50;4969311;28;122998;-81
2024/03/29 04:48:41;;;;;;;2.83;1.10;;;;;;;12.38;51.11;99145.06;4972642;28;114731;-81
2024/03/29 04:51:09;;;;;;;3.22;0.85;;;;;;;12.34;51.35;99154.22;4983671;28;112835;-82
2024/03/29 04:53:37;;;;;;;2.05;0.80;;;;;;;12.31;51.49;99149.19;4978904;28;123985;-82
2024/03/29 04:56:04;;;;;;;2.40;0.95;;;;;;;12.30;51.86;99155.44;4992779;28;123738;-82
2024/03/29 04:58:33;;;;;;;2.78;0.90;;;;;;;12.25;51.84;99146.03;5003316;28;114788;-81
2024/03/29 05:00:59;;;;;;;0.65;0.50;;;;;;;12.23;51.93;99137.34;4971075;28;113130;-82
2024/03/29 05:03:26;;;;;;;2.78;0.90;;;;;;;12.21;52.04;99149.91;4995156;28;124720;-81
2024/03/29 05:05:53;;;;;;;3.83;0.70;;;;;;;12.18;52.18;99139.53;4983188;28;121886;-81
2024/03/29 05:08:22;;;;;;;1.80;0.60;;;;;;;12.17;52.22;99142.31;4984537;28;115077;-81
2024/03/29 05:10:52;;;;;;;1.85;0.80;;;;;;;12.15;52.23;99145.09;4982491;28;113054;-81
2024/03/29 05:13:22;;;;;;;2.63;0.73;;;;;;;12.12;52.43;99144.47;4992224;28;123620;-81
2024/03/29 05:15:49;;;;;;;3.20;0.80;;;;;;;12.09;52.56;99134.94;4972582;28;125085;-82
2024/03/29 05:18:35;;;;;;;1.52;0.60;;;;;;;12.06;52.72;99140.50;4984415;28;116003;-81
2024/03/29 05:21:02;;;;;;;1.52;0.90;;;;;;;12.04;52.66;99142.44;4993250;28;114321;-80
2024/03/29 05:23:28;;;;;;;1.70;1.00;;;;;;;12.03;52.82;99135.44;4997098;28;123530;-79
2024/03/29 05:25:55;;;;;;;2.72;0.80;;;;;;;12.02;52.60;99139.06;4978028;28;125636;-78
2024/03/29 05:28:22;;;;;;;1.35;0.80;;;;;;;12.00;52.63;99144.47;4965681;28;114821;-79
2024/03/29 05:30:48;;;;;;;1.70;0.70;;;;;;;11.98;52.49;99148.19;4992563;28;113352;-79
2024/03/29 05:33:15;;;;;;;1.83;0.82;;;;;;;11.97;52.26;99146.53;4994095;28;124158;-79
2024/03/29 05:35:41;;;;;;;0.70;0.70;;;;;;;11.95;52.39;99133.38;4980849;28;122377;-79
2024/03/29 05:38:08;;;;;;;1.25;0.88;;;;;;;11.95;52.42;99137.84;4971757;28;112319;-79
2024/03/29 05:40:34;;;;;;;1.30;0.68;;;;;;;11.96;52.34;99134.22;4970042;28;113233;-79
2024/03/29 05:43:00;;;;;;;0.68;0.60;;;;;;;11.96;52.26;99128.91;4995651;28;123996;-79
2024/03/29 05:45:29;;;;;;;1.10;0.95;;;;;;;11.95;52.10;99127.22;4976269;28;123315;-79
2024/03/29 05:47:56;;;;;;;0.73;0.73;;;;;;;11.94;52.30;99137.00;4978965;28;115180;-81
2024/03/29 05:50:24;;;;;;;1.13;0.70;;;;;;;11.95;52.37;99121.94;4993696;28;113202;-80
2024/03/29 05:52:52;;;;;;;1.30;1.02;;;;;;;11.95;52.31;99119.28;4982238;28;122503;-80
2024/03/29 05:55:19;;;;;;;3.05;0.70;;;;;;;11.96;52.25;99144.81;5004344;28;123960;-80
2024/03/29 05:57:45;;;;;;;2.63;1.00;;;;;;;11.93;52.22;99139.78;4980285;28;114614;-80
2024/03/29 06:00:16;;;;;;;3.28;0.90;;;;;;;11.91;52.18;99147.84;5000591;28;115473;-79
2024/03/29 06:02:45;;;;;;;1.55;0.90;;;;;;;11.90;52.32;99150.63;4981471;28;124615;-80
2024/03/29 06:05:11;;;;;;;1.58;0.80;;;;;;;11.88;52.28;99154.22;4962599;28;122625;-80
2024/03/29 06:07:38;;;;;;;2.42;1.00;;;;;;;11.88;52.44;99164.84;4977867;28;112326;-80
2024/03/29 06:10:05;;;;;;;1.05;0.90;;;;;;;11.86;52.29;99161.41;4982253;28;112402;-80
2024/03/29 06:12:35;;;;;;;1.50;0.70;;;;;;;11.85;52.49;99158.91;5001019;28;123288;-80
2024/03/29 06:17:47;;;;;;;1.27;0.83;;;;;;;11.81;52.40;99173.34;4976906;28;113712;-80
2024/03/29 06:20:13;;;;;;;1.02;0.80;;;;;;;11.79;52.64;99176.16;4993505;28;113141;-80
2024/03/29 06:22:40;;;;;;;1.42;0.70;;;;;;;11.78;52.69;99169.13;4961341;28;123892;-80
2024/03/29 06:25:07;;;;;;;2.08;0.90;;;;;;;11.78;52.55;99174.44;4978218;28;123385;-80
2024/03/29 06:27:39;;;;;;;1.10;0.70;;;;;;;11.76;52.55;99176.38;4991195;28;113723;-79
2024/03/29 06:30:08;;;;;;;1.77;0.75;;;;;;;11.77;52.55;99162.16;4989566;28;114123;-80
2024/03/29 06:32:34;;;;;;;1.33;0.82;;;;;;;11.76;52.44;99141.06;4998056;28;123114;-79
2024/03/29 06:35:00;;;;;;;2.78;0.98;;;;;;;11.75;52.45;99147.31;4995518;28;123140;-79
2024/03/29 06:37:28;;;;;;;1.40;0.77;;;;;;;11.75;52.80;99148.16;4994678;28;113507;-80
2024/03/29 06:39:54;;;;;;;1.90;0.80;;;;;;;11.76;52.71;99152.50;4981185;28;112865;-80
2024/03/29 06:42:20;;;;;;;1.77;0.82;;;;;;;11.78;52.77;99155.88;5001606;28;123872;-79
2024/03/29 06:44:47;;;;;;;2.10;1.00;;;;;;;11.79;52.97;99154.94;4965970;28;123557;-80
2024/03/29 06:47:13;;;;;;;2.25;0.80;;;;;;;11.83;52.91;99151.06;4999753;28;113679;-80
2024/03/29 06:49:39;;;;;;;0.95;0.90;;;;;;;11.84;53.03;99147.44;4985418;28;115954;-80
2024/03/29 06:52:06;;;;;;;2.58;0.90;;;;;;;11.84;52.93;99158.03;4995052;28;123586;-80
2024/03/29 06:54:33;;;;;;;4.68;0.70;;;;;;;11.88;53.17;99142.75;4997320;28;123128;-80
2024/03/29 06:56:59;;;;;;;1.25;0.70;;;;;;;11.92;53.12;99138.91;4982821;28;113552;-80
2024/03/29 06:59:26;;;;;;;1.27;1.15;;;;;;;11.94;53.05;99136.16;5000366;28;114448;-80
2024/03/29 07:01:52;;;;;;;2.67;1.00;;;;;;;11.95;53.05;99135.19;5005554;28;123517;-79
2024/03/29 07:04:19;;;;;;;1.52;0.85;;;;;;;11.94;53.02;99125.53;4989802;28;122122;-80
2024/03/29 07:06:51;;;;;;;2.92;0.90;;;;;;;11.96;53.17;99134.22;4996088;28;113910;-80
2024/03/29 07:09:22;;;;;;;1.05;0.80;;;;;;;11.95;52.95;99144.00;5001751;28;114215;-80
2024/03/29 07:11:50;;;;;;;1.98;0.85;;;;;;;11.97;53.11;99138.56;4969712;28;124193;-80
2024/03/29 07:14:18;;;;;;;2.15;0.90;;;;;;;11.98;53.08;99142.88;4964837;28;123822;-79
2024/03/29 07:16:45;;;;;;;3.58;0.90;;;;;;;11.97;53.44;99142.06;4998616;28;113806;-80
2024/03/29 07:19:12;;;;;;;1.63;0.80;;;;;;;12.00;53.16;99135.69;4991708;28;114215;-80
2024/03/29 07:21:39;;;;;;;1.13;0.73;;;;;;;12.01;53.40;99150.63;5005445;28;124774;-79
2024/03/29 07:24:06;;;;;;;2.33;0.73;;;;;;;12.06;53.25;99159.91;5002281;28;125569;-80
2024/03/29 07:26:33;;;;;;;1.75;0.82;;;;;;;12.11;53.25;99159.56;4966488;28;112196;-80
2024/03/29 07:28:59;;;;;;;1.20;0.70;;;;;;;12.14;53.17;99175.22;4994591;28;114079;-79
2024/03/29 07:31:25;;;;;;;2.25;0.93;;;;;;;12.17;53.36;99175.00;5001499;28;124706;-80
2024/03/29 07:33:52;;;;;;;1.50;0.80;;;;;;;12.20;53.43;99180.06;4985186;28;123438;-80
2024/03/29 07:36:18;;;;;;;0.60;0.60;;;;;;;12.25;53.33;99188.50;4999036;28;114881;-80
2024/03/29 07:38:45;;;;;;;2.90;0.80;;;;;;;12.30;53.47;99184.63;4988358;28;114817;-80
2024/03/29 07:41:11;;;;;;;1.75;0.80;;;;;;;12.34;53.53;99192.25;5006241;28;124427;-79
2024/03/29 07:43:39;;;;;;;2.85;0.95;;;;;;;12.37;53.41;99191.16;4987119;28;122292;-80
2024/03/29 07:46:08;;;;;;;1.15;0.90;;;;;;;12.43;53.50;99174.72;5002302;28;115098;-79
2024/03/29 07:48:36;;;;;;;0.88;0.65;;;;;;;12.46;53.36;99164.72;4979170;28;113680;-80
2024/03/29 07:51:02;;;;;;;2.25;0.90;;;;;;;12.50;53.55;99186.56;4990001;28;123766;-80
2024/03/29 07:53:28;;;;;;;0.80;0.80;;;;;;;12.52;53.46;99189.94;4993039;28;124456;-80
2024/03/29 07:55:55;;;;;;;1.88;1.02;;;;;;;12.58;53.67;99189.47;5005323;28;113724;-80
2024/03/29 07:58:21;;;;;;;2.33;1.25;;;;;;;12.60;53.82;99186.66;4983268;28;114912;-80
2024/03/29 08:00:47;;;;;;;1.77;1.10;;;;;;;12.64;53.82;99188.97;4995309;28;125935;-80
2024/03/29 08:03:14;;;;;;;2.58;1.10;;;;;;;12.69;53.83;99174.47;5003459;28;125318;-81
2024/03/29 08:05:40;;;;;;;2.58;1.08;;;;;;;12.73;53.73;99170.59;4998204;28;116038;-79
2024/03/29 08:08:07;;;;;;;3.03;0.80;;;;;;;12.76;53.72;99170.34;4988069;28;114631;-80
2024/03/29 08:10:33;;;;;;;1.52;0.82;;;;;;;12.80;53.74;99166.47;4992069;28;122011;-80
2024/03/29 08:13:00;;;;;;;3.33;1.00;;;;;;;12.84;53.85;99159.94;5002407;28;124644;-80
2024/03/29 08:15:27;;;;;;;1.58;0.93;;;;;;;12.89;53.81;99155.09;4999327;28;115015;-80
2024/03/29 08:17:53;;;;;;;3.75;1.00;;;;;;;12.94;53.88;99157.38;4999187;28;114535;-82
2024/03/29 08:20:20;;;;;;;3.38;0.90;;;;;;;12.98;53.96;99159.66;5003241;28;123509;-81
2024/03/29 08:22:46;;;;;;;2.13;0.95;;;;;;;13.03;53.89;99167.25;4993612;28;123630;-83
2024/03/29 08:25:12;;;;;;;1.60;0.90;;;;;;;13.04;53.81;99167.13;4959482;28;113568;-82
2024/03/29 08:27:39;;;;;;;1.48;0.93;;;;;;;13.08;53.85;99170.38;4997498;28;115035;-81
2024/03/29 08:30:06;;;;;;;2.92;0.80;;;;;;;13.11;53.90;99148.88;4989040;28;122985;-82
2024/03/29 08:32:32;;;;;;;1.70;1.02;;;;;;;13.14;53.88;99148.59;4969241;28;121713;-82
2024/03/29 08:34:58;;;;;;;2.45;1.00;;;;;;;13.19;53.83;99161.53;4988191;28;114529;-81
2024/03/29 08:37:25;;;;;;;2.05;1.00;;;;;;;13.21;53.90;99175.53;4982674;28;114088;-81
2024/03/29 08:39:51;;;;;;;1.33;0.90;;;;;;;13.26;53.96;99183.97;4973293;28;122747;-81
2024/03/29 08:42:17;;;;;;;2.85;1.10;;;;;;;13.32;53.92;99169.34;4991772;28;122661;-81
2024/03/29 08:44:44;;;;;;;2.67;1.02;;;;;;;13.36;53.88;99179.59;4974542;28;113674;-81
2024/03/29 08:47:11;;;;;;;3.40;1.00;;;;;;;13.41;54.06;99172.09;4971476;28;97134;-80
2024/03/29 08:49:38;;;;;;;1.77;1.05;;;;;;;13.49;53.90;99173.25;4978986;28;124059;-80
2024/03/29 08:52:05;;;;;;;1.33;0.93;;;;;;;13.53;53.96;99180.00;4977368;28;123920;-80
2024/03/29 08:54:32;;;;;;;2.97;1.33;;;;;;;13.59;53.83;99174.16;4952970;28;112575;-81
2024/03/29 08:56:59;;;;;;;1.10;1.00;;;;;;;13.65;54.07;99184.28;4979245;28;114805;-81
2024/03/29 08:59:25;;;;;;;1.20;1.00;;;;;;;13.72;53.90;99201.41;4985659;28;124239;-80
2024/03/29 09:01:52;;;;;;;2.97;1.50;;;;;;;13.78;53.92;99206.19;4964549;28;123959;-81
2024/03/29 09:04:19;;;;;;;3.75;1.50;;;;;;;13.85;53.74;99208.38;4948071;28;115030;-81
2024/03/29 09:06:45;;;;;;;1.75;1.25;;;;;;;13.92;53.98;99201.53;4964952;28;112796;-81
2024/03/29 09:09:13;;;;;;;2.35;1.15;;;;;;;13.98;53.85;99201.03;4948495;28;125143;-80
2024/03/29 09:11:39;;;;;;;2.67;1.25;;;;;;;14.05;53.95;99196.00;4947985;28;122463;-80
2024/03/29 09:14:09;;;;;;;1.77;1.15;;;;;;;14.11;53.85;99188.34;4965828;28;116459;-82
2024/03/29 09:16:35;;;;;;;1.60;1.15;;;;;;;14.17;53.87;99189.63;4977283;28;115991;-80
2024/03/29 09:19:02;;;;;;;2.90;1.35;;;;;;;14.27;54.03;99208.31;4949082;28;125336;-81
2024/03/29 09:21:28;;;;;;;1.83;1.20;;;;;;;14.37;54.04;99212.72;4943696;28;125040;-82
2024/03/29 09:23:55;;;;;;;1.30;1.10;;;;;;;14.49;53.98;99200.13;4969762;28;115142;-81
2024/03/29 09:26:21;;;;;;;3.95;1.60;;;;;;;14.55;53.94;99193.41;4969446;28;113203;-82
2024/03/29 09:28:47;;;;;;;3.05;1.50;;;;;;;14.63;53.83;99206.09;4948242;28;124931;-80
2024/03/29 09:31:13;;;;;;;1.98;1.20;;;;;;;14.70;53.96;99207.25;4966192;28;123462;-82
2024/03/29 09:33:39;;;;;;;2.85;1.35;;;;;;;14.74;53.88;99203.31;4967018;28;114086;-81
2024/03/29 09:36:06;;;;;;;1.73;1.20;;;;;;;14.78;53.72;99212.72;4949590;28;115552;-81
2024/03/29 09:38:32;;;;;;;2.00;1.48;;;;;;;14.83;53.74;99210.50;4946674;28;124697;-81
2024/03/29 09:41:11;;;;;;;2.35;1.48;;;;;;;14.87;53.91;99209.25;4979310;28;123897;-81
2024/03/29 09:43:39;;;;;;;3.00;1.92;;;;;;;14.94;53.92;99210.38;4965225;28;113215;-80
2024/03/29 09:46:06;;;;;;;4.55;1.50;;;;;;;15.05;53.85;99227.22;4981566;28;113566;-81
2024/03/29 09:48:36;;;;;;;5.43;1.35;;;;;;;15.15;54.00;99233.44;4958968;28;124493;-80
2024/03/29 09:51:05;;;;;;;3.40;1.35;;;;;;;15.26;54.13;99235.16;4949482;28;124350;-81
2024/03/29 09:53:36;;;;;;;3.80;1.60;;;;;;;15.35;53.98;99240.47;4980242;28;114018;-80
2024/03/29 09:56:06;;;;;;;3.00;1.40;;;;;;;15.47;53.87;99232.34;4950973;28;115007;-81
2024/03/29 09:58:33;;;;;;;2.47;1.52;;;;;;;15.57;53.82;99243.84;4945633;28;123880;-82
2024/03/29 10:01:04;;;;;;;3.95;1.73;;;;;;;15.68;53.78;99254.38;4967767;28;122418;-80
2024/03/29 10:03:39;;;;;;;2.50;1.38;;;;;;;15.75;53.86;99252.88;4963912;28;116298;-81
2024/03/29 10:06:08;;;;;;;3.22;1.50;;;;;;;15.85;53.70;99241.34;4957497;28;115755;-79
2024/03/29 10:08:35;;;;;;;2.10;1.30;;;;;;;15.94;53.71;99235.16;4963746;28;124019;-80
2024/03/29 10:11:03;;;;;;;2.45;1.20;;;;;;;16.01;53.75;99252.28;4973917;28;125698;-81
2024/03/29 10:13:29;;;;;;;2.00;1.33;;;;;;;16.10;53.63;99253.25;4953468;28;113529;-79
2024/03/29 10:15:56;;;;;;;4.13;1.20;;;;;;;16.19;53.58;99244.38;4949320;28;113878;-81
2024/03/29 10:18:23;;;;;;;2.72;1.10;;;;;;;16.27;53.50;99230.28;4966010;28;125058;-83
2024/03/29 10:21:01;;;;;;;4.13;1.25;;;;;;;16.35;53.53;99230.41;4968990;28;123497;-80
2024/03/29 10:23:28;;;;;;;4.70;1.60;;;;;;;16.43;53.43;99230.50;4978189;28;114707;-80
2024/03/29 10:25:54;;;;;;;2.72;1.33;;;;;;;16.52;53.42;99234.16;4969794;28;115245;-81
2024/03/29 10:28:20;;;;;;;2.50;1.30;;;;;;;16.62;53.27;99223.41;4950297;28;124476;-80
2024/03/29 10:30:48;;;;;;;2.10;1.20;;;;;;;16.65;52.96;99228.44;4969127;28;124411;-82
2024/03/29 10:33:15;;;;;;;3.25;1.17;;;;;;;16.65;52.84;99228.44;4966303;28;112968;-81
2024/03/29 10:35:42;;;;;;;2.55;1.10;;;;;;;16.67;52.85;99240.69;4972568;28;114374;-81
2024/03/29 10:38:12;;;;;;;2.92;1.40;;;;;;;16.72;53.00;99245.56;4991118;28;124886;-82
2024/03/29 10:40:42;;;;;;;1.38;0.80;;;;;;;16.77;52.83;99237.97;4973314;28;123804;-80
2024/03/29 10:43:12;;;;;;;2.55;1.10;;;;;;;16.83;52.85;99234.72;4973028;28;113243;-79
2024/03/29 10:45:39;;;;;;;1.35;0.98;;;;;;;16.90;52.80;99243.84;4956182;28;115103;-81
2024/03/29 10:48:09;;;;;;;1.83;0.98;;;;;;;17.01;52.96;99239.25;4946085;28;125103;-83
2024/03/29 10:50:37;;;;;;;1.63;1.00;;;;;;;17.12;53.23;99231.88;4965523;28;124704;-82
2024/03/29 10:53:03;;;;;;;2.47;1.05;;;;;;;17.24;52.67;99235.16;4971522;28;115940;-80
2024/03/29 10:55:32;;;;;;;3.75;1.00;;;;;;;17.36;52.70;99237.63;4951538;28;115622;-83
2024/03/29 10:58:00;;;;;;;2.03;0.98;;;;;;;17.45;52.62;99242.06;4953996;28;123503;-81
2024/03/29 11:00:29;;;;;;;4.13;1.10;;;;;;;17.55;52.65;99247.34;4963204;28;124036;-82
2024/03/29 11:03:03;;;;;;;2.50;1.10;;;;;;;17.64;52.23;99259.81;4961540;28;113739;-82
2024/03/29 11:05:35;;;;;;;1.90;1.02;;;;;;;17.68;52.20;99272.72;4950446;28;113331;-82
2024/03/29 11:08:03;;;;;;;1.75;1.00;;;;;;;17.71;51.92;99275.09;4971448;28;124560;-82
2024/03/29 11:10:36;;;;;;;2.08;0.80;;;;;;;17.75;51.99;99269.44;4960073;28;124393;-81
2024/03/29 11:13:24;;;;;;;1.55;1.00;;;;;;;17.70;51.48;99267.22;4962408;28;115354;-80
2024/03/29 11:15:50;;;;;;;1.20;0.90;;;;;;;17.65;51.41;99259.66;4949572;28;114825;-81
2024/03/29 11:18:19;;;;;;;1.30;0.90;;;;;;;17.60;51.50;99256.59;4966742;28;124947;-83
2024/03/29 11:20:53;;;;;;;1.80;1.30;;;;;;;17.58;51.59;99247.88;4953227;28;125501;-81
2024/03/29 11:23:21;;;;;;;1.42;1.13;;;;;;;17.60;51.64;99234.34;4973193;28;114262;-82
2024/03/29 11:25:53;;;;;;;4.43;1.33;;;;;;;17.65;51.66;99227.53;4965808;28;113992;-82
2024/03/29 11:28:40;;;;;;;1.50;1.20;;;;;;;17.71;51.44;99221.53;4946891;28;124953;-81
2024/03/29 11:31:08;;;;;;;1.55;1.10;;;;;;;17.75;51.33;99227.44;4963607;28;124752;-83
2024/03/29 11:33:44;;;;;;;1.23;0.85;;;;;;;17.79;51.33;99234.16;4952146;28;115474;-82
2024/03/29 11:36:13;;;;;;;1.08;0.90;;;;;;;17.83;51.04;99250.75;4948527;28;113292;-80
2024/03/29 11:38:40;;;;;;;2.15;0.88;;;;;;;17.84;50.88;99260.50;4965813;28;123829;-82